KPRX/PRX METAR and TAF weather

Enter ICAO airport designator
Station Type Date Time Source
KPRX METAR 2021/04/13 22:56 UTC NOAA

KPRX 132256Z AUTO 04008KT 10SM SCT080 BKN095 26/14 A2995 RMK AO2 SLP151 T02610144


Station Type Date Time Source
KPRX Decoded METAR 2021/04/13 22:56 UTC NOAA

Paris / Cox Field, TX, United States (KPRX) 33-38N 095-27W
Apr 13, 2021 - 06:56 PM EDT / 2021.04.13 2256 UTC
Wind: from the NE (040 degrees) at 9 MPH (8 KT):0
Visibility: 10 mile(s):0
Sky conditions: mostly cloudy
Temperature: 79.0 F (26.1 C)
Dew Point: 57.9 F (14.4 C)
Relative Humidity: 48%
Pressure (altimeter): 29.95 in. Hg (1014 hPa)
ob: KPRX 132256Z AUTO 04008KT 10SM SCT080 BKN095 26/14 A2995 RMK AO2 SLP151 T02610144
cycle: 23

Station Type Date Time Source
KPRX TAF UTC NOAA

Error!

Example: see airport list